KAXS/AXS METAR and TAF weather

Enter ICAO airport designator
Station Type Date Time Source
KAXS METAR 2021/03/08 11:55 UTC NOAA

KAXS 081155Z AUTO 13005KT 10SM CLR 04/M01 A3031 RMK AO2 T00401015 10091 20037


Station Type Date Time Source
KAXS Decoded METAR 2021/03/08 11:55 UTC NOAA

Altus, Altus/Quartz Mountain Regional Airport, OK, United States (KAXS) 34-41-55N 099-20-17W
Mar 08, 2021 - 06:55 AM EST / 2021.03.08 1155 UTC
Wind: from the SE (130 degrees) at 6 MPH (5 KT):0
Visibility: 10 mile(s):0
Sky conditions: clear
Temperature: 39.2 F (4.0 C)
Dew Point: 29.3 F (-1.5 C)
Relative Humidity: 67%
Pressure (altimeter): 30.31 in. Hg (1026 hPa)
ob: KAXS 081155Z AUTO 13005KT 10SM CLR 04/M01 A3031 RMK AO2 T00401015 10091 20037
cycle: 12

Station Type Date Time Source
KAXS TAF UTC NOAA

Error!

Example: see airport list